Time;durP1;ratioP1;P1;durP2;ratioP2;P2;SDS_P1;SDS_P2;PMS_P1;PMS_P2;Temp;Humidity;BMP_temperature;BMP_pressure;BME280_temperature;BME280_humidity;BME280_pressure;Samples;Min_cycle;Max_cycle;Signal;HPM_P1;HPM_P2
2022/01/23 00:01:55;;;;;;;38.78;13.35;;;2.20;99.90;;;;;;4950043;28;20027;-71
2022/01/23 00:04:21;;;;;;;41.47;13.55;;;2.20;99.90;;;;;;4949872;28;20039;-70
2022/01/23 00:06:48;;;;;;;46.38;14.90;;;2.20;99.90;;;;;;4950858;28;20089;-70
2022/01/23 00:09:16;;;;;;;40.22;13.23;;;2.20;99.90;;;;;;4950404;28;20102;-70
2022/01/23 00:11:49;;;;;;;42.20;14.07;;;2.20;99.90;;;;;;4950783;28;20535;-71
2022/01/23 00:17:18;;;;;;;37.42;12.35;;;2.10;99.90;;;;;;4949773;28;20038;-70
2022/01/23 00:19:46;;;;;;;37.75;12.65;;;2.10;99.90;;;;;;4950926;28;20038;-70
2022/01/23 00:22:12;;;;;;;36.95;12.55;;;2.10;99.90;;;;;;4948211;28;20027;-71
2022/01/23 00:30:30;;;;;;;40.22;13.15;;;2.10;99.90;;;;;;4949434;28;20463;-71
2022/01/23 00:32:58;;;;;;;45.05;13.68;;;2.10;99.90;;;;;;4949620;29;20046;-72
2022/01/23 00:35:25;;;;;;;42.53;13.77;;;2.20;99.90;;;;;;4948802;28;20034;-71
2022/01/23 00:37:51;;;;;;;48.25;14.52;;;2.10;99.90;;;;;;4949920;28;20476;-71
2022/01/23 00:40:18;;;;;;;45.08;14.77;;;2.10;99.90;;;;;;4950165;28;20034;-70
2022/01/23 00:42:44;;;;;;;45.60;14.32;;;2.10;99.90;;;;;;4950161;28;20031;-71
2022/01/23 00:47:39;;;;;;;45.93;13.87;;;2.20;99.90;;;;;;4948196;28;20038;-71
2022/01/23 00:50:05;;;;;;;49.40;14.90;;;2.20;99.90;;;;;;4949738;28;20027;-71
2022/01/23 00:52:31;;;;;;;41.10;14.70;;;2.20;99.90;;;;;;4953820;28;20034;-71
2022/01/23 00:54:59;;;;;;;40.85;13.40;;;2.20;99.90;;;;;;4948139;28;20047;-71
2022/01/23 00:57:25;;;;;;;42.53;14.30;;;2.20;99.90;;;;;;4950839;28;20035;-72
2022/01/23 00:59:50;;;;;;;48.72;15.57;;;2.20;99.90;;;;;;4950080;28;20520;-71
2022/01/23 01:02:16;;;;;;;42.72;14.50;;;2.20;99.90;;;;;;4949069;28;20569;-71
2022/01/23 01:04:41;;;;;;;48.85;15.13;;;2.20;99.90;;;;;;4950115;29;20039;-71
2022/01/23 01:07:07;;;;;;;43.03;13.73;;;2.20;99.90;;;;;;4954151;28;20027;-72
2022/01/23 01:09:33;;;;;;;48.53;15.15;;;2.20;99.90;;;;;;4950220;29;20047;-71
2022/01/23 01:12:03;;;;;;;45.53;14.73;;;2.20;99.90;;;;;;4948010;28;20027;-71
2022/01/23 01:17:03;;;;;;;45.58;14.10;;;2.20;99.90;;;;;;4949230;28;20043;-70
2022/01/23 01:33:30;;;;;;;44.17;12.77;;;2.20;99.90;;;;;;4952171;28;20416;-71
2022/01/23 01:38:42;;;;;;;39.78;13.55;;;2.30;99.90;;;;;;4942378;28;20047;-71
2022/01/23 01:41:08;;;;;;;39.25;13.02;;;2.20;99.90;;;;;;4953064;28;20465;-71
2022/01/23 01:43:34;;;;;;;44.88;15.13;;;2.30;99.90;;;;;;4952167;28;20031;-71
2022/01/23 01:45:59;;;;;;;42.38;13.23;;;2.20;99.90;;;;;;4952988;28;20575;-71
2022/01/23 01:48:26;;;;;;;39.35;13.23;;;2.20;99.90;;;;;;4953648;28;20042;-71
2022/01/23 01:50:54;;;;;;;42.53;13.25;;;2.20;99.90;;;;;;4953250;28;20384;-70
2022/01/23 01:53:21;;;;;;;40.30;13.05;;;2.30;99.90;;;;;;4951817;28;20625;-71
2022/01/23 01:55:52;;;;;;;42.70;14.23;;;2.30;99.90;;;;;;4953403;28;20031;-71
2022/01/23 01:58:44;;;;;;;40.28;12.57;;;2.30;99.90;;;;;;4950587;28;20023;-71
2022/01/23 02:02:45;;;;;;;38.08;13.13;;;2.20;99.90;;;;;;4948727;28;20031;-71
2022/01/23 02:09:39;;;;;;;40.20;12.88;;;2.30;99.90;;;;;;4947398;28;20055;-71
2022/01/23 02:23:20;;;;;;;34.20;12.35;;;2.30;99.90;;;;;;4948931;28;20085;-71
2022/01/23 02:55:49;;;;;;;43.60;13.25;;;2.30;99.90;;;;;;4950890;28;20133;-71
2022/01/23 02:58:21;;;;;;;41.22;13.88;;;2.30;99.90;;;;;;4948755;28;20400;-71
2022/01/23 03:01:07;;;;;;;47.38;15.10;;;2.30;99.90;;;;;;4951913;28;20035;-71
2022/01/23 03:03:36;;;;;;;43.65;14.60;;;2.30;99.90;;;;;;4949687;28;21252;-72
2022/01/23 03:14:21;;;;;;;46.65;14.45;;;2.40;99.90;;;;;;4924327;28;20078;-71
2022/01/23 03:25:21;;;;;;;96.65;17.75;;;2.40;99.90;;;;;;4950950;28;20046;-72
2022/01/23 03:28:16;;;;;;;95.90;20.17;;;2.40;99.90;;;;;;4946161;28;21915;-71
2022/01/23 03:30:50;;;;;;;82.30;17.92;;;2.40;99.90;;;;;;4947935;28;20063;-72
2022/01/23 03:33:16;;;;;;;72.60;17.92;;;2.40;99.90;;;;;;4949591;28;20122;-71
2022/01/23 03:35:42;;;;;;;74.32;18.67;;;2.40;99.90;;;;;;4948043;28;20143;-71
2022/01/23 03:38:07;;;;;;;89.10;20.15;;;2.30;99.90;;;;;;4950160;28;21938;-71
2022/01/23 03:40:33;;;;;;;89.30;18.77;;;2.40;99.90;;;;;;4950305;29;20102;-71
2022/01/23 03:43:08;;;;;;;78.75;18.50;;;2.40;99.90;;;;;;4949516;28;20035;-72
2022/01/23 03:50:50;;;;;;;61.83;17.95;;;2.30;99.90;;;;;;4949091;28;20035;-71
2022/01/23 03:53:16;;;;;;;60.83;18.13;;;2.40;99.90;;;;;;4949835;28;20086;-71
2022/01/23 03:55:42;;;;;;;53.25;15.70;;;2.40;99.90;;;;;;4943860;28;20035;-71
2022/01/23 03:58:07;;;;;;;56.13;17.70;;;2.40;99.90;;;;;;4948610;29;20034;-71
2022/01/23 04:00:33;;;;;;;64.85;17.65;;;2.40;99.90;;;;;;4946593;28;20035;-72
2022/01/23 04:02:59;;;;;;;68.05;16.90;;;2.40;99.90;;;;;;4950001;28;20436;-72
2022/01/23 04:05:25;;;;;;;66.55;17.67;;;2.40;99.90;;;;;;4949414;28;20027;-71
2022/01/23 04:07:51;;;;;;;64.72;17.60;;;2.40;99.90;;;;;;4949935;28;20101;-71
2022/01/23 04:10:19;;;;;;;54.05;17.02;;;2.40;99.90;;;;;;4947646;28;20472;-71
2022/01/23 04:12:55;;;;;;;51.47;16.00;;;2.40;99.90;;;;;;4943566;28;20037;-71
2022/01/23 04:15:34;;;;;;;137.98;21.25;;;2.30;99.90;;;;;;4954775;28;20032;-71
2022/01/23 05:01:06;;;;;;;46.13;13.68;;;2.10;99.90;;;;;;4947333;29;20046;-70
2022/01/23 05:06:09;;;;;;;45.83;13.48;;;2.10;99.90;;;;;;4941717;28;20045;-71
2022/01/23 05:08:37;;;;;;;47.30;14.55;;;2.10;99.90;;;;;;4954669;28;20063;-71
2022/01/23 05:11:06;;;;;;;44.78;13.75;;;2.00;99.90;;;;;;4952257;28;20042;-71
2022/01/23 05:13:32;;;;;;;42.50;13.05;;;2.10;99.90;;;;;;4955740;28;20122;-72
2022/01/23 05:15:58;;;;;;;43.47;13.23;;;2.10;99.90;;;;;;4952812;28;20482;-71
2022/01/23 05:18:25;;;;;;;44.28;12.77;;;2.10;99.90;;;;;;4951251;28;20536;-71
2022/01/23 05:21:00;;;;;;;40.22;12.05;;;2.10;99.90;;;;;;4953685;28;20059;-70
2022/01/23 05:23:26;;;;;;;39.17;12.63;;;2.10;99.90;;;;;;4958886;28;20035;-71
2022/01/23 05:25:52;;;;;;;41.88;13.27;;;2.10;99.90;;;;;;4953311;28;20039;-71
2022/01/23 05:28:17;;;;;;;44.58;14.25;;;2.20;99.90;;;;;;4952679;28;20030;-71
2022/01/23 05:30:43;;;;;;;36.95;12.32;;;2.20;99.90;;;;;;4950822;28;20039;-72
2022/01/23 05:33:09;;;;;;;39.47;12.30;;;2.10;99.90;;;;;;4948242;28;20109;-71
2022/01/23 05:35:35;;;;;;;36.70;11.48;;;2.10;99.90;;;;;;4938809;29;20099;-72
2022/01/23 05:38:01;;;;;;;41.33;13.45;;;2.10;99.90;;;;;;4952552;28;20047;-72
2022/01/23 05:40:29;;;;;;;44.40;14.57;;;2.10;99.90;;;;;;4950691;28;20050;-72
2022/01/23 05:42:55;;;;;;;42.25;13.38;;;2.20;99.90;;;;;;4951768;28;20027;-72
2022/01/23 05:45:21;;;;;;;40.95;13.90;;;2.10;99.90;;;;;;4952001;28;20041;-71
2022/01/23 05:47:46;;;;;;;47.00;14.43;;;2.10;99.90;;;;;;4952632;28;20044;-71
2022/01/23 05:50:12;;;;;;;42.38;15.30;;;2.10;99.90;;;;;;4952359;28;20391;-70
2022/01/23 05:52:38;;;;;;;48.17;15.05;;;2.20;99.90;;;;;;4953791;28;20113;-71
2022/01/23 05:55:04;;;;;;;45.28;14.68;;;2.10;99.90;;;;;;4952160;28;20067;-71
2022/01/23 05:57:30;;;;;;;50.05;15.27;;;2.20;99.90;;;;;;4952013;28;20043;-70
2022/01/23 05:59:56;;;;;;;48.08;14.82;;;2.20;99.90;;;;;;4951558;28;20031;-71
2022/01/23 06:02:21;;;;;;;46.75;14.98;;;2.20;99.90;;;;;;4950641;28;20027;-72
2022/01/23 06:04:47;;;;;;;52.67;16.45;;;2.20;99.90;;;;;;4956517;28;20050;-71
2022/01/23 06:07:14;;;;;;;51.90;16.15;;;2.20;99.90;;;;;;4951965;28;20031;-71
2022/01/23 06:09:41;;;;;;;50.67;15.13;;;2.20;99.90;;;;;;4952731;28;20372;-72
2022/01/23 06:12:07;;;;;;;61.35;15.65;;;2.20;99.90;;;;;;4952485;28;20115;-72
2022/01/23 06:14:33;;;;;;;65.90;15.18;;;2.20;99.90;;;;;;4952381;28;20126;-71
2022/01/23 06:16:59;;;;;;;69.85;17.52;;;2.20;99.90;;;;;;4953048;28;20415;-71
2022/01/23 06:19:26;;;;;;;71.45;16.52;;;2.20;99.90;;;;;;4948056;28;20388;-70
2022/01/23 06:21:52;;;;;;;90.22;19.10;;;2.30;99.90;;;;;;4952133;29;20031;-71
2022/01/23 06:24:30;;;;;;;144.60;21.77;;;2.20;99.90;;;;;;4952262;28;20049;-71
2022/01/23 06:26:58;;;;;;;153.55;21.52;;;2.20;99.90;;;;;;4953320;29;20042;-71
2022/01/23 06:29:25;;;;;;;96.60;18.58;;;2.20;99.90;;;;;;4950438;28;20038;-70
2022/01/23 06:31:53;;;;;;;118.70;19.38;;;2.10;99.90;;;;;;4958525;28;20038;-71
2022/01/23 06:34:19;;;;;;;174.25;22.52;;;2.10;99.90;;;;;;4951039;28;20034;-71
2022/01/23 06:36:49;;;;;;;152.55;20.83;;;2.10;99.90;;;;;;4952612;28;20048;-71
2022/01/23 06:39:14;;;;;;;123.45;19.80;;;2.10;99.90;;;;;;4952393;28;20081;-71
2022/01/23 06:41:41;;;;;;;143.55;20.02;;;2.10;99.90;;;;;;4950437;28;20035;-72
2022/01/23 06:44:07;;;;;;;67.13;18.00;;;2.20;99.90;;;;;;4951531;28;20039;-72
2022/01/23 06:46:33;;;;;;;89.38;17.33;;;2.10;99.90;;;;;;4951502;28;20031;-71
2022/01/23 06:49:00;;;;;;;191.77;23.00;;;2.10;99.90;;;;;;4950733;29;20364;-71
2022/01/23 06:51:26;;;;;;;138.75;19.70;;;2.10;99.90;;;;;;4954415;28;20035;-74
2022/01/23 06:53:52;;;;;;;211.88;24.52;;;2.10;99.90;;;;;;4951956;28;20487;-72
2022/01/23 06:56:18;;;;;;;164.07;20.75;;;2.10;99.90;;;;;;4951307;28;20027;-71
2022/01/23 06:58:44;;;;;;;104.88;18.35;;;2.10;99.90;;;;;;4952476;28;20031;-72
2022/01/23 07:01:10;;;;;;;175.80;22.40;;;2.10;99.90;;;;;;4952686;28;20035;-72
2022/01/23 07:03:36;;;;;;;209.43;23.05;;;2.10;99.90;;;;;;4952853;28;20027;-72
2022/01/23 07:06:03;;;;;;;172.63;22.50;;;2.10;99.90;;;;;;4951755;28;20035;-71
2022/01/23 07:08:28;;;;;;;90.50;17.90;;;2.10;99.90;;;;;;4949926;28;20102;-71
2022/01/23 07:10:54;;;;;;;67.72;18.33;;;2.10;99.90;;;;;;4950287;28;20035;-71
2022/01/23 07:13:20;;;;;;;69.80;17.73;;;2.20;99.90;;;;;;4948361;28;20050;-72
2022/01/23 07:15:47;;;;;;;78.00;18.30;;;2.20;99.90;;;;;;4948695;28;20527;-71
2022/01/23 07:18:15;;;;;;;65.82;17.40;;;2.20;99.90;;;;;;4952348;28;20093;-71
2022/01/23 07:20:41;;;;;;;61.83;17.83;;;2.20;99.90;;;;;;4951061;28;20042;-72
2022/01/23 07:23:07;;;;;;;62.47;17.33;;;2.20;99.90;;;;;;4951660;28;20046;-72
2022/01/23 07:25:33;;;;;;;67.80;17.92;;;2.20;99.90;;;;;;4950252;28;20492;-72
2022/01/23 07:28:00;;;;;;;67.65;16.70;;;2.20;99.90;;;;;;4952108;28;20039;-71
2022/01/23 07:30:49;;;;;;;64.82;18.20;;;2.20;99.90;;;;;;4949278;28;20041;-72
2022/01/23 07:33:15;;;;;;;56.03;16.65;;;2.20;99.90;;;;;;4949704;28;20066;-70
2022/01/23 07:35:41;;;;;;;67.75;17.88;;;2.20;99.90;;;;;;4956172;28;20500;-72
2022/01/23 07:38:09;;;;;;;70.18;19.25;;;2.20;99.90;;;;;;4951559;28;20519;-70
2022/01/23 07:40:36;;;;;;;55.70;16.85;;;2.20;99.90;;;;;;4950494;28;20882;-72
2022/01/23 07:43:01;;;;;;;61.65;18.75;;;2.20;99.90;;;;;;4950595;28;20041;-71
2022/01/23 07:45:27;;;;;;;61.67;17.30;;;2.20;99.90;;;;;;4952189;28;20035;-71
2022/01/23 07:47:53;;;;;;;73.97;17.90;;;2.20;99.90;;;;;;4950897;28;20023;-71
2022/01/23 07:50:18;;;;;;;68.63;18.23;;;2.20;99.90;;;;;;4949871;28;20035;-70
2022/01/23 07:52:44;;;;;;;71.30;19.75;;;2.20;99.90;;;;;;4950371;28;20035;-72
2022/01/23 07:55:13;;;;;;;72.03;19.65;;;2.20;99.90;;;;;;4950162;28;20039;-71
2022/01/23 07:57:42;;;;;;;84.82;20.15;;;2.20;99.90;;;;;;4950229;28;20031;-70
2022/01/23 08:00:09;;;;;;;97.40;21.52;;;2.30;99.90;;;;;;4944219;28;20023;-71
2022/01/23 08:02:35;;;;;;;105.03;20.73;;;2.40;99.90;;;;;;4949188;28;20118;-71
2022/01/23 08:05:01;;;;;;;158.75;24.55;;;2.30;99.90;;;;;;4948767;28;20070;-72
2022/01/23 08:09:55;;;;;;;251.68;28.42;;;2.30;99.90;;;;;;4951005;28;20031;-72
2022/01/23 08:12:21;;;;;;;138.80;25.98;;;2.40;99.90;;;;;;4948534;28;20054;-72
2022/01/23 08:14:47;;;;;;;123.63;22.50;;;2.40;99.90;;;;;;4950336;28;20035;-72
2022/01/23 08:17:13;;;;;;;91.20;21.73;;;2.30;99.90;;;;;;4949513;28;20054;-72
2022/01/23 08:19:39;;;;;;;117.18;22.42;;;2.40;99.90;;;;;;4949674;28;20063;-72
2022/01/23 08:22:05;;;;;;;109.32;21.88;;;2.30;99.90;;;;;;4950199;28;20110;-71
2022/01/23 08:24:30;;;;;;;107.78;23.85;;;2.30;99.90;;;;;;4949607;28;20048;-70
2022/01/23 08:26:56;;;;;;;125.20;23.33;;;2.30;99.90;;;;;;4950114;29;20118;-71
2022/01/23 08:29:22;;;;;;;86.82;21.92;;;2.40;99.90;;;;;;4949624;28;20034;-72
2022/01/23 08:31:47;;;;;;;99.15;21.70;;;2.40;99.90;;;;;;4947421;28;20037;-71
2022/01/23 08:34:14;;;;;;;162.77;25.02;;;2.50;99.90;;;;;;4945911;28;20503;-71
2022/01/23 08:36:39;;;;;;;190.38;25.38;;;2.50;99.90;;;;;;4950344;28;20035;-72
2022/01/23 08:39:05;;;;;;;103.75;22.35;;;2.40;99.90;;;;;;4948944;28;20046;-71
2022/01/23 08:41:49;;;;;;;98.03;20.88;;;2.40;99.90;;;;;;4952836;28;20027;-72
2022/01/23 08:44:27;;;;;;;134.40;22.95;;;2.40;99.90;;;;;;4949117;28;20133;-72
2022/01/23 08:46:53;;;;;;;118.28;22.40;;;2.50;99.90;;;;;;4949050;28;20472;-72
2022/01/23 08:49:22;;;;;;;71.93;19.42;;;2.50;99.90;;;;;;4949749;28;20102;-73
2022/01/23 08:51:50;;;;;;;57.83;16.73;;;2.50;99.90;;;;;;4950373;28;20043;-71
2022/01/23 08:54:16;;;;;;;67.60;18.00;;;2.50;99.90;;;;;;4950018;28;20399;-72
2022/01/23 08:56:42;;;;;;;74.13;19.45;;;2.60;99.90;;;;;;4948263;28;20492;-72
2022/01/23 08:59:08;;;;;;;75.10;18.42;;;2.60;99.90;;;;;;4949761;28;20042;-72
2022/01/23 09:01:35;;;;;;;73.68;20.30;;;2.60;99.90;;;;;;4947055;28;20023;-72
2022/01/23 09:04:05;;;;;;;77.78;20.13;;;2.70;99.90;;;;;;4949327;28;20039;-71
2022/01/23 09:06:31;;;;;;;80.30;21.50;;;2.70;99.90;;;;;;4946518;29;20106;-71
2022/01/23 09:08:59;;;;;;;73.88;19.33;;;2.70;99.90;;;;;;4950283;28;20059;-71
2022/01/23 09:14:10;;;;;;;74.85;19.85;;;2.70;99.90;;;;;;4950434;28;20059;-71
2022/01/23 09:16:44;;;;;;;69.07;19.15;;;2.70;99.90;;;;;;4942666;28;20047;-71
2022/01/23 09:19:10;;;;;;;77.45;19.77;;;2.70;99.90;;;;;;4949121;28;20035;-71
2022/01/23 09:21:38;;;;;;;59.25;16.42;;;2.80;99.90;;;;;;4949921;28;20551;-71
2022/01/23 09:24:05;;;;;;;55.47;15.15;;;2.90;99.90;;;;;;4948779;28;20503;-71
2022/01/23 09:26:31;;;;;;;63.88;16.60;;;2.90;99.90;;;;;;4949586;28;20523;-71
2022/01/23 09:29:01;;;;;;;58.92;16.70;;;2.90;99.90;;;;;;4949137;29;20039;-70
2022/01/23 09:31:48;;;;;;;58.47;16.23;;;3.00;99.90;;;;;;4949530;28;20187;-70
2022/01/23 09:34:15;;;;;;;57.75;15.95;;;3.00;99.90;;;;;;4948492;29;20031;-70
2022/01/23 09:36:41;;;;;;;56.63;16.20;;;3.00;99.90;;;;;;4941713;28;20062;-70
2022/01/23 09:39:06;;;;;;;59.30;16.77;;;3.00;99.90;;;;;;4949141;28;20061;-71
2022/01/23 09:41:34;;;;;;;63.38;18.20;;;2.90;99.90;;;;;;4949269;28;20049;-72
2022/01/23 09:44:00;;;;;;;52.60;16.25;;;2.90;99.90;;;;;;4948535;28;20475;-71
2022/01/23 09:46:27;;;;;;;51.65;14.25;;;2.90;99.90;;;;;;4948212;28;20310;-72
2022/01/23 09:48:54;;;;;;;54.00;15.38;;;2.90;99.90;;;;;;4950355;28;20035;-71
2022/01/23 09:51:23;;;;;;;55.20;15.35;;;2.90;99.90;;;;;;4950048;28;20473;-70
2022/01/23 09:53:52;;;;;;;59.38;15.65;;;2.90;99.90;;;;;;4945667;28;20036;-70
2022/01/23 09:56:31;;;;;;;56.42;15.55;;;2.90;99.90;;;;;;4949790;28;20037;-71
2022/01/23 09:58:57;;;;;;;50.65;14.68;;;3.00;99.90;;;;;;4947207;28;20082;-70
2022/01/23 10:01:24;;;;;;;42.60;14.18;;;3.00;99.90;;;;;;4953644;28;20027;-70
2022/01/23 10:03:50;;;;;;;45.28;14.25;;;2.90;99.90;;;;;;4953395;28;20035;-70
2022/01/23 10:06:16;;;;;;;44.78;13.27;;;3.00;99.90;;;;;;4953130;28;20039;-70
2022/01/23 10:08:43;;;;;;;42.58;13.50;;;3.00;99.90;;;;;;4952009;28;20419;-70
2022/01/23 10:11:12;;;;;;;42.72;14.00;;;3.00;99.90;;;;;;4952227;28;20468;-70
2022/01/23 10:13:40;;;;;;;50.88;15.57;;;3.10;99.90;;;;;;4952505;28;20067;-71
2022/01/23 10:16:06;;;;;;;43.10;13.85;;;3.20;99.90;;;;;;4953125;28;20109;-72
2022/01/23 10:18:32;;;;;;;44.97;14.32;;;3.30;99.90;;;;;;4952500;28;20114;-70
2022/01/23 10:20:58;;;;;;;46.22;14.02;;;3.40;99.90;;;;;;4953550;28;20472;-71
2022/01/23 10:23:25;;;;;;;48.88;13.90;;;3.40;99.90;;;;;;4953007;28;20503;-69
2022/01/23 10:25:52;;;;;;;38.95;13.27;;;3.50;99.90;;;;;;4951378;28;20082;-70
2022/01/23 10:28:21;;;;;;;44.65;13.18;;;3.50;99.90;;;;;;4953061;28;20441;-70
2022/01/23 10:31:02;;;;;;;47.03;14.07;;;3.60;99.90;;;;;;4951900;28;20039;-70
2022/01/23 10:33:29;;;;;;;40.90;13.05;;;3.60;99.90;;;;;;4952813;28;20043;-71
2022/01/23 10:36:17;;;;;;;42.67;13.68;;;3.70;99.90;;;;;;4952461;28;20477;-69
2022/01/23 10:39:03;;;;;;;36.50;13.57;;;3.70;99.90;;;;;;4950563;28;20462;-68
2022/01/23 10:50:05;;;;;;;40.20;13.15;;;4.00;99.90;;;;;;4953425;28;20670;-69
2022/01/23 10:52:35;;;;;;;39.85;13.15;;;4.00;99.90;;;;;;4946355;28;20064;-70
2022/01/23 10:55:04;;;;;;;26.55;8.93;;;4.10;99.90;;;;;;4950950;28;20035;-69
2022/01/23 10:57:35;;;;;;;36.05;11.88;;;4.00;99.90;;;;;;4952111;28;20135;-70
2022/01/23 11:00:05;;;;;;;37.22;12.15;;;3.90;99.90;;;;;;4951189;28;20096;-68
2022/01/23 11:02:31;;;;;;;34.63;12.05;;;3.80;99.90;;;;;;4949228;28;20035;-69
2022/01/23 11:05:09;;;;;;;34.65;11.52;;;3.80;99.90;;;;;;4951008;28;20051;-70
2022/01/23 11:07:40;;;;;;;36.70;11.90;;;3.90;99.90;;;;;;4950909;28;20047;-69
2022/01/23 11:10:08;;;;;;;33.67;11.18;;;3.90;99.90;;;;;;4951991;28;20396;-69
2022/01/23 11:17:57;;;;;;;33.83;10.95;;;4.10;99.90;;;;;;4951764;28;20034;-68
2022/01/23 11:20:31;;;;;;;31.17;11.20;;;4.10;99.90;;;;;;4950872;28;20039;-69
2022/01/23 11:23:10;;;;;;;58.30;22.92;;;4.10;99.90;;;;;;4952242;28;20114;-69
2022/01/23 11:25:36;;;;;;;24.70;8.73;;;4.10;99.90;;;;;;4951458;28;20031;-68
2022/01/23 11:28:04;;;;;;;32.08;11.30;;;4.20;99.90;;;;;;4951533;28;20042;-68
2022/01/23 11:30:36;;;;;;;33.45;11.40;;;4.20;99.90;;;;;;4951695;28;20027;-70
2022/01/23 11:33:03;;;;;;;34.28;11.60;;;4.20;99.90;;;;;;4951764;28;20043;-68
2022/01/23 11:35:29;;;;;;;34.35;11.18;;;4.20;99.90;;;;;;4951754;28;20055;-70
2022/01/23 11:37:58;;;;;;;33.85;11.23;;;4.30;99.90;;;;;;4951895;29;20077;-69
2022/01/23 11:50:33;;;;;;;26.85;9.88;;;4.40;99.90;;;;;;4944034;28;20110;-70
2022/01/23 11:54:44;;;;;;;28.10;10.02;;;4.50;99.90;;;;;;4943470;28;20122;-71
2022/01/23 11:57:37;;;;;;;28.33;10.75;;;4.50;99.90;;;;;;4951215;28;20040;-68
2022/01/23 12:00:25;;;;;;;29.60;10.73;;;4.50;99.90;;;;;;4951445;28;20105;-68
2022/01/23 12:03:07;;;;;;;33.50;11.45;;;4.50;99.90;;;;;;4944766;28;20027;-69
2022/01/23 12:05:33;;;;;;;28.92;10.95;;;4.60;99.90;;;;;;4950865;28;20503;-70
2022/01/23 12:08:36;;;;;;;28.10;10.80;;;4.50;99.90;;;;;;4950742;28;20048;-69
2022/01/23 12:16:34;;;;;;;27.90;10.70;;;4.60;99.90;;;;;;4949680;28;20047;-70
2022/01/23 12:19:19;;;;;;;28.73;9.40;;;4.60;99.90;;;;;;4948644;28;20030;-69
2022/01/23 12:21:46;;;;;;;29.27;10.23;;;4.60;99.90;;;;;;4950128;28;20043;-69
2022/01/23 12:24:15;;;;;;;27.58;9.40;;;4.60;99.90;;;;;;4951201;28;20035;-69
2022/01/23 12:26:44;;;;;;;28.58;10.13;;;4.70;99.90;;;;;;4948338;28;20051;-69
2022/01/23 12:29:23;;;;;;;30.20;11.95;;;4.80;99.90;;;;;;4949654;28;20118;-69
2022/01/23 12:32:09;;;;;;;27.33;9.73;;;4.90;99.90;;;;;;4942451;28;20062;-69
2022/01/23 12:34:51;;;;;;;27.05;9.60;;;4.90;99.90;;;;;;4948779;28;20422;-70
2022/01/23 12:37:17;;;;;;;25.70;10.18;;;5.00;99.90;;;;;;4950397;28;20070;-69
2022/01/23 12:39:43;;;;;;;25.23;9.77;;;5.10;99.90;;;;;;4948719;28;20066;-68
2022/01/23 12:42:09;;;;;;;26.88;9.55;;;5.10;99.90;;;;;;4950975;28;20031;-69
2022/01/23 12:44:38;;;;;;;26.63;11.23;;;5.00;99.90;;;;;;4950168;28;20098;-71
2022/01/23 12:47:07;;;;;;;21.13;8.68;;;4.90;99.90;;;;;;4953686;28;20035;-69
2022/01/23 12:49:37;;;;;;;23.88;8.80;;;5.00;99.90;;;;;;4953949;28;20090;-69
2022/01/23 12:52:05;;;;;;;22.33;7.75;;;5.10;99.90;;;;;;4950963;28;20035;-68
2022/01/23 12:54:34;;;;;;;17.35;6.88;;;5.10;99.90;;;;;;4950360;28;20039;-69
2022/01/23 12:57:12;;;;;;;18.83;6.78;;;5.10;99.90;;;;;;4949858;28;20034;-68
2022/01/23 12:59:39;;;;;;;21.17;8.30;;;5.20;99.90;;;;;;4949859;28;20439;-70
2022/01/23 13:02:13;;;;;;;21.08;7.88;;;5.30;99.90;;;;;;4942700;28;20388;-70
2022/01/23 13:04:45;;;;;;;49.83;14.95;;;5.30;99.90;;;;;;4949599;29;20043;-71
2022/01/23 13:07:23;;;;;;;22.48;7.53;;;5.40;99.90;;;;;;4949930;28;20035;-69
2022/01/23 13:31:59;;;;;;;25.05;8.85;;;5.00;99.90;;;;;;4953182;29;20041;-69
2022/01/23 13:34:36;;;;;;;11.48;5.07;;;4.90;99.90;;;;;;4953639;28;20042;-70
2022/01/23 13:37:01;;;;;;;11.45;3.90;;;4.90;99.90;;;;;;4952549;28;20053;-72
2022/01/23 13:39:32;;;;;;;11.82;4.75;;;4.90;99.90;;;;;;4953391;28;21495;-71
2022/01/23 13:53:30;;;;;;;11.23;4.07;;;4.90;99.90;;;;;;4953625;28;20038;-70
2022/01/23 13:58:50;;;;;;;10.95;3.67;;;4.80;99.90;;;;;;4952993;28;20070;-69
2022/01/23 14:04:03;;;;;;;7.22;2.90;;;4.80;99.90;;;;;;4944311;28;20058;-66
2022/01/23 14:06:28;;;;;;;7.88;3.03;;;4.90;99.90;;;;;;4956914;28;20028;-68
2022/01/23 14:09:09;;;;;;;11.23;4.40;;;5.00;99.90;;;;;;4951658;29;20118;-67
2022/01/23 14:11:35;;;;;;;14.20;4.53;;;5.00;99.90;;;;;;4954541;28;20035;-67
2022/01/23 14:14:19;;;;;;;16.67;6.10;;;5.10;99.90;;;;;;4949242;29;20253;-67
2022/01/23 14:16:47;;;;;;;9.45;3.88;;;5.00;99.90;;;;;;4949146;28;20035;-66
2022/01/23 14:19:19;;;;;;;10.75;4.40;;;4.90;99.90;;;;;;4951801;28;20035;-67
2022/01/23 14:21:53;;;;;;;14.13;4.90;;;4.90;99.90;;;;;;4950193;28;20023;-65
2022/01/23 14:24:31;;;;;;;11.82;4.70;;;4.90;99.90;;;;;;4950790;29;20039;-65
2022/01/23 14:27:02;;;;;;;9.90;3.88;;;4.80;99.90;;;;;;4949138;29;20039;-66
2022/01/23 14:29:30;;;;;;;14.15;4.68;;;4.90;99.90;;;;;;4951568;28;20028;-66
2022/01/23 14:32:26;;;;;;;10.25;4.18;;;4.70;99.90;;;;;;4946863;28;20086;-66
2022/01/23 14:35:07;;;;;;;15.20;6.68;;;4.70;99.90;;;;;;4947208;28;20035;-68
2022/01/23 14:37:33;;;;;;;9.70;4.00;;;4.70;99.90;;;;;;4952971;28;20035;-67
2022/01/23 14:40:17;;;;;;;16.48;6.30;;;4.70;99.90;;;;;;4947511;28;20082;-67
2022/01/23 14:43:03;;;;;;;18.80;7.45;;;4.70;99.90;;;;;;4950371;29;20035;-69
2022/01/23 14:45:31;;;;;;;10.95;5.18;;;4.70;99.90;;;;;;4948035;28;20053;-68
2022/01/23 14:47:57;;;;;;;10.55;4.20;;;4.70;99.90;;;;;;4945454;28;20039;-67
2022/01/23 14:50:25;;;;;;;25.65;8.10;;;4.60;99.90;;;;;;4951630;28;20026;-67
2022/01/23 14:52:51;;;;;;;26.90;9.05;;;4.60;99.90;;;;;;4951538;28;20035;-66
2022/01/23 14:55:17;;;;;;;18.50;6.45;;;4.60;99.90;;;;;;4951547;28;20035;-66
2022/01/23 14:57:45;;;;;;;15.43;6.72;;;4.60;99.90;;;;;;4951470;28;20031;-67
2022/01/23 15:00:13;;;;;;;16.77;6.97;;;4.60;99.90;;;;;;4951664;28;20604;-67
2022/01/23 15:02:41;;;;;;;26.83;12.02;;;4.60;99.90;;;;;;4952205;28;20050;-67
2022/01/23 15:05:07;;;;;;;39.70;15.10;;;4.60;99.90;;;;;;4949547;29;20037;-67
2022/01/23 15:07:39;;;;;;;38.25;14.15;;;4.60;99.90;;;;;;4916707;28;1158267;-67
2022/01/23 15:10:05;;;;;;;17.55;8.02;;;4.60;99.90;;;;;;4951302;28;20113;-66
2022/01/23 15:12:31;;;;;;;38.60;15.63;;;4.60;99.90;;;;;;4952297;28;20058;-66
2022/01/23 15:14:57;;;;;;;30.98;12.70;;;4.50;99.90;;;;;;4954871;28;20035;-66
2022/01/23 15:17:25;;;;;;;20.90;8.13;;;4.50;99.90;;;;;;4952131;28;20392;-66
2022/01/23 15:19:50;;;;;;;10.90;4.57;;;4.50;99.90;;;;;;4951001;28;20566;-67
2022/01/23 15:22:16;;;;;;;8.43;3.75;;;4.50;99.90;;;;;;4952041;28;20148;-67
2022/01/23 15:24:42;;;;;;;8.05;3.00;;;4.50;99.90;;;;;;4951738;28;20035;-69
2022/01/23 15:27:08;;;;;;;8.35;3.05;;;4.50;99.90;;;;;;4951669;28;20696;-68
2022/01/23 15:29:33;;;;;;;7.97;2.83;;;4.50;99.90;;;;;;4950306;28;20034;-67
2022/01/23 15:31:59;;;;;;;8.32;3.35;;;4.40;99.90;;;;;;4950639;28;20090;-67
2022/01/23 15:34:27;;;;;;;8.70;3.72;;;4.40;99.90;;;;;;4951360;28;20042;-67
2022/01/23 15:36:53;;;;;;;13.18;5.53;;;4.40;99.90;;;;;;4951197;28;20036;-67
2022/01/23 15:39:22;;;;;;;5.80;2.50;;;4.40;99.90;;;;;;4952189;28;20031;-67
2022/01/23 15:41:48;;;;;;;9.00;3.65;;;4.40;99.90;;;;;;4950739;28;20027;-67
2022/01/23 15:44:14;;;;;;;9.15;3.50;;;4.30;99.90;;;;;;4949861;28;20027;-67
2022/01/23 15:46:39;;;;;;;17.20;6.93;;;4.30;99.90;;;;;;4951845;28;20388;-67
2022/01/23 15:49:06;;;;;;;14.32;6.00;;;4.30;99.90;;;;;;4949569;29;20054;-67
2022/01/23 15:51:32;;;;;;;20.02;7.65;;;4.30;99.90;;;;;;4951114;28;20035;-67
2022/01/23 15:53:58;;;;;;;13.20;4.88;;;4.20;99.90;;;;;;4951554;28;20035;-67
2022/01/23 15:56:24;;;;;;;16.35;6.47;;;4.20;99.90;;;;;;4949797;28;20427;-66
2022/01/23 15:58:49;;;;;;;11.32;4.72;;;4.20;99.90;;;;;;4951128;28;20055;-66
2022/01/23 16:01:16;;;;;;;30.58;11.35;;;4.00;99.90;;;;;;4957624;28;20039;-66
2022/01/23 16:03:42;;;;;;;31.45;12.73;;;4.10;99.90;;;;;;4949903;28;20045;-66
2022/01/23 16:06:07;;;;;;;24.77;9.38;;;4.10;99.90;;;;;;4950066;28;20110;-66
2022/01/23 16:08:35;;;;;;;18.25;7.35;;;4.00;99.90;;;;;;4950655;28;20246;-66
2022/01/23 16:11:03;;;;;;;18.67;7.47;;;4.00;99.90;;;;;;4951292;28;20087;-67
2022/01/23 16:13:30;;;;;;;22.42;10.60;;;4.00;99.90;;;;;;4951985;28;20111;-67
2022/01/23 16:15:58;;;;;;;23.42;11.02;;;4.00;99.90;;;;;;4950082;28;20071;-67
2022/01/23 16:18:23;;;;;;;18.40;7.35;;;4.00;99.90;;;;;;4950253;28;20042;-67
2022/01/23 16:20:49;;;;;;;23.42;8.88;;;4.00;99.90;;;;;;4949042;29;20039;-66
2022/01/23 16:23:15;;;;;;;20.55;8.68;;;3.90;99.90;;;;;;4950158;28;20767;-67
2022/01/23 16:25:40;;;;;;;17.63;7.97;;;3.90;99.90;;;;;;4951122;28;20031;-67
2022/01/23 16:28:06;;;;;;;18.92;7.95;;;3.90;99.90;;;;;;4949714;28;20042;-66